Liverpool, NY (13090)

6:50 PM EDT on May 05, 2015 (GMT -0400)
Merrill Farms | | Change Station
CLOSE
Current Station
Personal Weather Station
Location: Liverpool, NY
Elevation: 436 ft
Nearby Weather Stations

Elev 436 ft 43.13 °N, 76.17 °W | Updated 15 seconds ago

Mostly Cloudy
Mostly Cloudy
65.7 °F
Feels Like 65.7 °F
N
1.8
Wind Variable Wind from NE
Gusts 2.5 mph

Today
High -- | Low -- °F
--% Chance of Precip.
Yesterday
High -- | Low -- °F
Precip. -- in
5:53 AM 8:10 PM
Waning Gibbous, 97% visible
Pressure 30.21 in
Visibility 10.0 miles
Clouds Few 5000 ft
Mostly Cloudy 19000 ft
Overcast 20000 ft
Dew Point 41 °F
Humidity 40%
Rainfall 0.00 in
Snow Depth Not available.
UV 1 out of 12
Pollen 6.20 out of 12
Air Quality Not available.
Flu Activity Widespread
METAR KSYR 052154Z 31007KT 10SM FEW050 BKN190 OVC200 19/07 A3022 RMK AO2 SLP230 BKN V OVC T01940072

More Conditions Fewer Conditions

Pressure 30.21 in
Visibility 10.0 miles
Clouds Few 5000 ft
Mostly Cloudy 19000 ft
Overcast 20000 ft
Dew Point 41 °F
Humidity 40%
Rainfall 0.00 in
Snow Depth Not available.
UV 1 out of 12
Pollen 6.20 out of 12
Air Quality Not available.
Flu Activity Widespread
METAR KSYR 052154Z 31007KT 10SM FEW050 BKN190 OVC200 19/07 A3022 RMK AO2 SLP230 BKN V OVC T01940072

More Conditions Fewer Conditions

10-Day Weather Forecast

Almanac

Astronomy

May. 05, 2015 Rise Set
Actual Time
Civil Twilight
Nautical Twilight
Astronomical Twilight
Moon
Length of Visible Light
Length of Day
Tomorrow will be .
, % of the Moon is Illuminated

Today's Extremes

State Highs State Lows

Community

WunderPhotos

Upload Photos

1,819,000 photos uploaded!

WunderBlogs® & News

Nearby

Air Quality

  Air Quality AQ Index Pollutant
Not available.

Snow Depth

Station Depth Elevation

Earthquake Activity

City Distance Mag. Time & Date
Minimum magnitude displayed is 2.5.

Coastal Water Temperatures

Place Temperature

Stations

Nearby Weather Stations

Station Location Temp. Windchill Dew Point Humidity Wind Precip. Elev Updated Type